createdAt,value
2023-02-24T00:02:45.622Z,5.6
2023-02-24T00:08:23.127Z,5.4
2023-02-24T00:13:40.284Z,5.5
2023-02-24T00:19:11.101Z,5.3
2023-02-24T00:24:48.372Z,5.4
2023-02-24T00:30:37.271Z,5.2
2023-02-24T00:36:11.871Z,5.1
2023-02-24T00:41:29.810Z,5.1
2023-02-24T00:46:54.879Z,5
2023-02-24T00:52:28.545Z,4.8
2023-02-24T00:58:18.871Z,4.7
2023-02-24T01:03:56.324Z,4.9
2023-02-24T01:09:23.721Z,5.6
2023-02-24T01:14:55.408Z,6.2
2023-02-24T01:20:34.037Z,5.2
2023-02-24T01:25:58.313Z,5
2023-02-24T01:31:30.397Z,5.2
2023-02-24T01:36:58.748Z,5.1
2023-02-24T01:42:45.537Z,4.9
2023-02-24T01:48:01.057Z,4.9
2023-02-24T01:53:47.679Z,4.5
2023-02-24T01:59:23.448Z,4.8
2023-02-24T02:04:49.785Z,4.8
2023-02-24T02:10:39.063Z,4.6
2023-02-24T02:16:14.605Z,4.2
2023-02-24T02:21:32.408Z,3.9
2023-02-24T02:27:14.385Z,3.9
2023-02-24T02:32:34.764Z,3.7
2023-02-24T02:38:01.614Z,3.6
2023-02-24T02:43:56.980Z,3.5
2023-02-24T02:49:06.014Z,3.4
2023-02-24T02:54:44.417Z,3.5
2023-02-24T03:00:26.953Z,3.6
2023-02-24T03:05:56.818Z,4.1
2023-02-24T03:11:32.217Z,4.6
2023-02-24T03:16:51.897Z,4.3
2023-02-24T03:22:53.211Z,4.1
2023-02-24T03:28:11.435Z,4.1
2023-02-24T03:33:32.177Z,4.1
2023-02-24T03:39:17.626Z,4.1
2023-02-24T03:45:05.162Z,3.9
2023-02-24T03:50:16.026Z,3.7
2023-02-24T03:55:46.249Z,3.8
2023-02-24T04:01:26.720Z,3.7
2023-02-24T04:07:04.760Z,3.6
2023-02-24T04:12:32.989Z,3.6
2023-02-24T04:17:59.788Z,3.4
2023-02-24T04:23:53.279Z,3.4
2023-02-24T04:29:27.523Z,3.2
2023-02-24T04:34:59.238Z,3.2
2023-02-24T04:40:26.718Z,3.1
2023-02-24T04:45:51.740Z,3.1
2023-02-24T04:51:17.103Z,4.1
2023-02-24T04:57:03.340Z,4
2023-02-24T05:02:41.427Z,4.1
2023-02-24T05:08:14.120Z,4.4
2023-02-24T05:13:47.337Z,4.2
2023-02-24T05:19:08.438Z,3.9
2023-02-24T05:25:00.562Z,3.7
2023-02-24T05:30:11.585Z,3.7
2023-02-24T05:58:18.275Z,3.8
2023-02-24T06:09:26.619Z,3.3
2023-02-24T06:31:31.551Z,3
2023-02-24T06:37:09.878Z,3
2023-02-24T06:53:36.322Z,2.1
2023-02-24T06:59:09.056Z,2.1
2023-02-24T07:04:49.462Z,2.6
2023-02-24T07:10:41.949Z,2.6
2023-02-24T07:43:40.591Z,3.7
2023-02-24T07:49:13.262Z,4.3
2023-02-24T07:54:49.260Z,4.7
2023-02-24T08:00:20.489Z,4.9
2023-02-24T08:06:02.946Z,5.5
2023-02-24T08:11:49.378Z,5.9
2023-02-24T08:17:06.296Z,6.1
2023-02-24T08:22:35.035Z,5.9
2023-02-24T08:28:25.438Z,5.9
2023-02-24T08:34:00.658Z,6
2023-02-24T08:39:30.883Z,6.4
2023-02-24T08:44:57.348Z,6.4
2023-02-24T08:50:35.387Z,7.2
2023-02-24T08:56:17.180Z,7.7
2023-02-24T09:01:45.243Z,8.2
2023-02-24T09:07:12.382Z,8.2
2023-02-24T09:13:11.060Z,8.6
2023-02-24T09:18:44.957Z,8
2023-02-24T09:24:12.436Z,8.5
2023-02-24T09:40:42.544Z,8.5
2023-02-24T10:25:23.524Z,10.3
2023-02-24T10:36:34.104Z,9.7
2023-02-24T10:42:22.243Z,9.8
2023-02-24T10:59:07.065Z,11.4
2023-02-24T11:10:25.658Z,10.8
2023-02-24T11:15:34.826Z,11.3
2023-02-24T11:32:23.227Z,11.4
2023-02-24T12:28:36.841Z,12.1
2023-02-24T12:34:14.921Z,12.4
2023-02-24T12:39:29.916Z,13
2023-02-24T12:45:24.075Z,12.6
2023-02-24T12:50:50.918Z,13
2023-02-24T13:52:40.615Z,15
2023-02-24T14:15:13.696Z,13.7
2023-02-24T14:20:42.705Z,13.9
2023-02-24T14:26:23.749Z,14.4
2023-02-24T14:37:44.712Z,14.2
2023-02-24T14:49:15.773Z,13.9
2023-02-24T14:54:32.720Z,13.9
2023-02-24T15:00:04.056Z,13.9
2023-02-24T15:05:39.561Z,13.3
2023-02-24T15:17:13.480Z,13.8
2023-02-24T15:33:48.447Z,13.7
2023-02-24T15:39:29.036Z,12.8
2023-02-24T15:45:11.465Z,12.6
2023-02-24T15:50:57.756Z,12.4
2023-02-24T16:13:17.327Z,12.7
2023-02-24T16:24:15.244Z,12.4
2023-02-24T16:35:32.506Z,12
2023-02-24T16:52:32.174Z,12.2
2023-02-24T17:14:30.064Z,11.7
2023-02-24T17:42:47.033Z,11.3
2023-02-24T17:54:08.997Z,9.6
2023-02-24T17:59:33.159Z,9.7
2023-02-24T18:05:00.155Z,9.8
2023-02-24T18:10:33.863Z,10.1
2023-02-24T18:16:19.288Z,9.8
2023-02-24T18:21:47.893Z,9.6
2023-02-24T18:27:07.893Z,9.8
2023-02-24T18:32:50.425Z,9.5
2023-02-24T18:38:43.126Z,9.4
2023-02-24T18:44:06.340Z,9.4
2023-02-24T18:49:44.492Z,9.8
2023-02-24T18:55:15.496Z,10
2023-02-24T19:00:44.418Z,11
2023-02-24T19:06:24.704Z,10.3
2023-02-24T19:12:09.827Z,10.2
2023-02-24T19:17:44.844Z,9.4
2023-02-24T19:22:59.379Z,9
2023-02-24T19:28:28.088Z,8.6
2023-02-24T19:34:06.456Z,8.6
2023-02-24T19:39:49.564Z,8.9
2023-02-24T19:45:27.528Z,9.1
2023-02-24T19:50:41.629Z,9.4
2023-02-24T19:56:27.961Z,9.3
2023-02-24T20:02:13.805Z,10.9
2023-02-24T20:07:41.573Z,10.7
2023-02-24T20:12:58.919Z,10.4
2023-02-24T20:18:55.156Z,9.5
2023-02-24T20:24:08.024Z,9.4
2023-02-24T20:29:40.935Z,9.1
2023-02-24T20:35:38.043Z,9.4
2023-02-24T20:41:07.899Z,9.3
2023-02-24T20:46:33.310Z,9.3
2023-02-24T20:52:15.890Z,9.2
2023-02-24T20:57:34.366Z,9.1
2023-02-24T21:03:15.964Z,9.2
2023-02-24T21:08:54.412Z,9
2023-02-24T21:14:38.467Z,9
2023-02-24T21:20:03.240Z,9.5
2023-02-24T21:25:38.882Z,9.4
2023-02-24T21:30:54.188Z,9.3
2023-02-24T21:36:28.605Z,9.5
2023-02-24T21:42:30.673Z,9.4
2023-02-24T21:48:00.101Z,9.2
2023-02-24T21:53:20.000Z,9.1
2023-02-24T21:58:50.098Z,8.7
2023-02-24T22:04:30.832Z,8.8
2023-02-24T22:10:17.270Z,9
2023-02-24T22:16:00.967Z,9.3
2023-02-24T22:21:22.599Z,9.3
2023-02-24T22:27:05.880Z,9.3
2023-02-24T22:32:26.375Z,9.2
2023-02-24T22:37:53.910Z,9.1
2023-02-24T22:43:29.468Z,9
2023-02-24T22:49:08.596Z,8.9
2023-02-24T22:54:46.830Z,8.8
2023-02-24T23:00:14.358Z,8.8
2023-02-24T23:06:00.400Z,8.8
2023-02-24T23:11:38.177Z,8.8
2023-02-24T23:16:50.415Z,8.7
2023-02-24T23:22:41.673Z,8.6
2023-02-24T23:28:16.588Z,8.4
2023-02-24T23:33:33.229Z,8.4
2023-02-24T23:39:12.871Z,8.5
2023-02-24T23:44:59.891Z,8.7
2023-02-24T23:50:40.342Z,8.8
2023-02-24T23:56:01.193Z,8.7
